Time;durP1;ratioP1;P1;durP2;ratioP2;P2;SDS_P1;SDS_P2;PMS_P1;PMS_P2;Temp;Humidity;BMP_temperature;BMP_pressure;BME280_temperature;BME280_humidity;BME280_pressure;Samples;Min_cycle;Max_cycle;Signal;HPM_P1;HPM_P2
2022/07/14 00:02:40;;;;;;;5.08;1.50;;;26.70;82.80;;;;;;1909678;75;21462;-79
2022/07/14 00:05:31;;;;;;;1.50;1.40;;;26.60;83.00;;;;;;1893260;75;21608;-79
2022/07/14 00:08:22;;;;;;;2.40;1.50;;;26.60;83.50;;;;;;1884826;75;21613;-79
2022/07/14 00:11:14;;;;;;;1.85;1.70;;;26.50;85.00;;;;;;1884389;75;21054;-79
2022/07/14 00:14:05;;;;;;;3.40;1.67;;;26.50;86.10;;;;;;1905289;75;21494;-79
2022/07/14 00:16:56;;;;;;;2.52;1.30;;;26.30;87.60;;;;;;1906635;75;21047;-80
2022/07/14 00:19:48;;;;;;;2.20;1.45;;;26.20;86.20;;;;;;1886757;75;21102;-80
2022/07/14 00:22:40;;;;;;;3.47;1.60;;;26.20;87.30;;;;;;1888008;75;21102;-80
2022/07/14 00:25:31;;;;;;;5.40;1.67;;;26.20;88.30;;;;;;1884118;75;21064;-80
2022/07/14 00:28:22;;;;;;;5.62;1.90;;;26.20;88.10;;;;;;1893743;75;21035;-80
2022/07/14 00:33:53;;;;;;;2.62;2.42;;;26.00;89.40;;;;;;1926082;72;22298;-79
2022/07/14 00:36:45;;;;;;;3.40;2.90;;;26.00;90.00;;;;;;1890816;75;21114;-79
2022/07/14 00:39:55;;;;;;;4.50;2.47;;;26.00;90.00;;;;;;1884608;75;21194;-80
2022/07/14 00:42:57;;;;;;;2.58;1.87;;;26.00;89.90;;;;;;1897974;75;21099;-79
2022/07/14 00:48:28;;;;;;;3.00;2.67;;;26.20;90.10;;;;;;1942036;72;22445;-79
2022/07/14 00:51:19;;;;;;;3.40;2.83;;;26.00;90.50;;;;;;1887177;75;21584;-80
2022/07/14 00:54:10;;;;;;;3.17;2.87;;;25.80;90.80;;;;;;1888035;75;21154;-80
2022/07/14 00:57:01;;;;;;;4.45;3.30;;;25.80;91.20;;;;;;1894495;75;21055;-80
2022/07/14 00:59:53;;;;;;;4.37;3.80;;;25.70;91.20;;;;;;1897438;75;21102;-80
2022/07/14 01:02:46;;;;;;;5.40;3.58;;;25.70;91.30;;;;;;1893919;75;21102;-80
2022/07/14 01:08:18;;;;;;;4.95;4.12;;;25.80;91.60;;;;;;1949989;72;22582;-80
2022/07/14 01:11:11;;;;;;;4.72;4.12;;;25.80;91.60;;;;;;1904633;75;21157;-80
2022/07/14 01:14:03;;;;;;;4.95;4.40;;;25.80;91.70;;;;;;1885226;75;21088;-80
2022/07/14 01:16:56;;;;;;;4.58;3.98;;;25.80;92.10;;;;;;1902702;75;21047;-80
2022/07/14 01:19:48;;;;;;;7.42;3.77;;;25.80;91.90;;;;;;1893399;75;21128;-80
2022/07/14 01:22:39;;;;;;;6.97;3.90;;;25.80;92.00;;;;;;1902951;75;21107;-80
2022/07/14 01:28:10;;;;;;;4.62;4.00;;;25.70;92.50;;;;;;1945545;72;22125;-80
2022/07/14 01:31:03;;;;;;;7.50;4.03;;;25.70;92.60;;;;;;1895758;74;21105;-80
2022/07/14 01:33:55;;;;;;;4.62;3.80;;;25.70;92.80;;;;;;1897345;75;21543;-79
2022/07/14 01:36:46;;;;;;;6.53;3.72;;;25.70;92.90;;;;;;1899625;75;21171;-79
2022/07/14 01:39:37;;;;;;;4.25;3.42;;;25.70;93.40;;;;;;1897645;75;21086;-79
2022/07/14 01:45:12;;;;;;;4.40;3.67;;;25.50;94.00;;;;;;1941473;72;22145;-80
2022/07/14 01:48:05;;;;;;;4.60;3.30;;;25.30;94.50;;;;;;1912931;75;21505;-80
2022/07/14 01:50:56;;;;;;;4.87;3.70;;;25.30;94.80;;;;;;1909735;74;21059;-80
2022/07/14 01:53:48;;;;;;;4.33;3.60;;;25.20;95.00;;;;;;1908253;74;21058;-80
2022/07/14 01:56:41;;;;;;;4.50;3.17;;;25.10;95.50;;;;;;1910070;75;21090;-80
2022/07/14 01:59:34;;;;;;;4.08;3.05;;;24.90;95.80;;;;;;1917362;75;21050;-80
2022/07/14 02:02:25;;;;;;;4.30;2.90;;;24.90;96.00;;;;;;1894791;75;21142;-80
2022/07/14 02:05:16;;;;;;;4.42;3.10;;;24.90;96.10;;;;;;1901680;75;21096;-80
2022/07/14 02:08:07;;;;;;;3.50;2.90;;;24.90;96.50;;;;;;1908136;75;21181;-80
2022/07/14 02:14:08;;;;;;;2.87;2.58;;;24.80;96.70;;;;;;1904005;74;21041;-80
2022/07/14 02:17:00;;;;;;;4.15;2.25;;;24.80;96.60;;;;;;1917598;75;21062;-80
2022/07/14 02:19:52;;;;;;;2.67;2.15;;;24.70;96.60;;;;;;1896444;75;21109;-80
2022/07/14 02:25:23;;;;;;;3.85;2.35;;;24.80;96.90;;;;;;1956824;72;22254;-79
2022/07/14 02:30:54;;;;;;;3.60;2.47;;;24.60;97.60;;;;;;1933926;72;22202;-79
2022/07/14 02:33:45;;;;;;;2.72;2.30;;;24.60;97.90;;;;;;1889993;75;21160;-80
2022/07/14 02:39:15;;;;;;;3.30;1.98;;;24.60;98.20;;;;;;1941263;72;22173;-79
2022/07/14 02:42:06;;;;;;;3.87;2.02;;;24.60;98.40;;;;;;1903567;75;21904;-79
2022/07/14 02:44:59;;;;;;;3.27;2.40;;;24.60;98.60;;;;;;1902970;75;21838;-80
2022/07/14 02:47:50;;;;;;;2.58;2.30;;;24.60;99.20;;;;;;1906959;75;21683;-79
2022/07/14 02:50:41;;;;;;;3.83;2.83;;;24.40;99.90;;;;;;1892358;75;21154;-79
2022/07/14 02:53:34;;;;;;;2.70;2.20;;;24.30;99.90;;;;;;1907103;75;21039;-80
2022/07/14 02:59:07;;;;;;;3.05;2.40;;;24.20;99.90;;;;;;1942911;72;22696;-79
2022/07/14 03:04:40;;;;;;;2.85;2.40;;;24.20;99.90;;;;;;1944336;72;22115;-87
2022/07/14 03:07:33;;;;;;;3.62;2.60;;;24.30;99.90;;;;;;1917622;73;21058;-88
2022/07/14 03:13:04;;;;;;;3.60;3.08;;;24.40;99.90;;;;;;1945003;72;22145;-88
2022/07/14 03:18:39;;;;;;;5.62;2.87;;;24.40;99.90;;;;;;1941797;72;22370;-88
2022/07/14 03:21:31;;;;;;;3.30;3.00;;;24.40;99.90;;;;;;1897888;73;21194;-87
2022/07/14 03:24:24;;;;;;;3.65;3.30;;;24.40;99.90;;;;;;1904399;75;21502;-87
2022/07/14 03:27:17;;;;;;;6.42;3.12;;;24.40;99.90;;;;;;1915125;74;21334;-88
2022/07/14 03:30:10;;;;;;;4.33;3.02;;;24.30;99.90;;;;;;1900022;75;21111;-87
2022/07/14 03:33:02;;;;;;;3.40;3.10;;;24.30;99.90;;;;;;1888500;75;21537;-87
2022/07/14 03:38:34;;;;;;;4.80;3.58;;;24.20;99.90;;;;;;1930019;72;22161;-88
2022/07/14 03:44:08;;;;;;;3.70;3.30;;;24.20;99.90;;;;;;1930948;72;22290;-88
2022/07/14 03:47:00;;;;;;;4.72;3.60;;;24.10;99.90;;;;;;1847687;76;21171;-88
2022/07/14 03:49:51;;;;;;;4.00;3.30;;;24.10;99.90;;;;;;1862014;76;21106;-88
2022/07/14 03:52:43;;;;;;;4.85;3.65;;;24.10;99.90;;;;;;1844110;77;21610;-88
2022/07/14 03:58:14;;;;;;;5.12;3.42;;;24.00;99.90;;;;;;1964099;72;22221;-87
2022/07/14 04:03:45;;;;;;;3.65;3.35;;;23.90;99.90;;;;;;1946325;72;22596;-87
2022/07/14 04:06:37;;;;;;;5.20;3.35;;;23.90;99.90;;;;;;1932450;73;21555;-88
2022/07/14 04:09:29;;;;;;;4.58;3.30;;;23.90;99.90;;;;;;1943041;73;21477;-88
2022/07/14 04:12:21;;;;;;;4.97;3.10;;;23.90;99.90;;;;;;1938975;73;21120;-88
2022/07/14 04:15:15;;;;;;;3.30;2.72;;;23.90;99.90;;;;;;1938587;73;21034;-88
2022/07/14 04:18:07;;;;;;;4.78;2.83;;;23.80;99.90;;;;;;1924031;73;21174;-88
2022/07/14 04:20:59;;;;;;;5.90;3.37;;;23.70;99.90;;;;;;1927969;73;21198;-88
2022/07/14 04:23:53;;;;;;;4.15;3.22;;;23.60;99.90;;;;;;1936560;73;21126;-89
2022/07/14 04:29:27;;;;;;;5.97;3.30;;;23.50;99.90;;;;;;1943393;72;22191;-88
2022/07/14 04:32:19;;;;;;;5.55;3.15;;;23.60;99.90;;;;;;1939440;73;21062;-88
2022/07/14 04:35:12;;;;;;;4.55;2.80;;;23.60;99.90;;;;;;1918206;75;21122;-88
2022/07/14 04:38:04;;;;;;;3.70;2.72;;;23.50;99.90;;;;;;1917679;75;21102;-88
2022/07/14 04:43:39;;;;;;;2.67;2.47;;;23.60;99.90;;;;;;1946551;72;22201;-87
2022/07/14 04:52:26;;;;;;;3.52;2.83;;;23.70;99.90;;;;;;1884276;75;21063;-88
2022/07/14 04:55:21;;;;;;;4.50;2.95;;;23.70;99.90;;;;;;1873152;75;21209;-89
2022/07/14 04:58:14;;;;;;;4.28;2.70;;;23.80;99.90;;;;;;1898295;75;21142;-89
2022/07/14 05:03:47;;;;;;;2.50;2.30;;;23.90;99.90;;;;;;1942216;72;22133;-88
2022/07/14 05:06:39;;;;;;;3.60;2.65;;;24.00;99.90;;;;;;1904459;75;21060;-87
2022/07/14 05:09:33;;;;;;;2.67;2.33;;;24.00;99.90;;;;;;1893045;75;21088;-87
2022/07/14 05:12:26;;;;;;;4.30;2.90;;;24.00;99.90;;;;;;1891017;75;21145;-88
2022/07/14 05:15:20;;;;;;;3.02;2.52;;;23.90;99.90;;;;;;1895984;75;21140;-87
2022/07/14 05:18:12;;;;;;;5.55;2.67;;;23.90;99.90;;;;;;1897184;75;21149;-88
2022/07/14 05:21:05;;;;;;;3.98;2.42;;;23.90;99.90;;;;;;1903485;75;21592;-88
2022/07/14 05:26:38;;;;;;;4.47;2.60;;;24.00;99.90;;;;;;1953694;72;22092;-88
2022/07/14 05:29:31;;;;;;;4.45;2.47;;;24.10;99.90;;;;;;1912731;75;21080;-88
2022/07/14 05:32:22;;;;;;;2.70;2.50;;;24.10;99.90;;;;;;1917063;75;21137;-88
2022/07/14 05:35:14;;;;;;;4.08;2.62;;;24.10;99.90;;;;;;1896814;75;21093;-88
2022/07/14 05:38:06;;;;;;;3.87;2.25;;;24.20;99.90;;;;;;1896640;75;21557;-88
2022/07/14 05:41:01;;;;;;;7.80;2.65;;;24.20;99.90;;;;;;1894058;75;21072;-88
2022/07/14 05:43:53;;;;;;;2.80;2.60;;;24.20;99.90;;;;;;1859627;76;21077;-88
2022/07/14 05:46:45;;;;;;;3.62;2.50;;;24.20;99.90;;;;;;1894475;75;21121;-88
2022/07/14 05:49:36;;;;;;;2.60;2.40;;;24.30;99.90;;;;;;1901826;75;21062;-87
2022/07/14 05:52:30;;;;;;;3.00;2.72;;;24.40;99.90;;;;;;1899315;75;21084;-87
2022/07/14 05:55:22;;;;;;;2.50;2.30;;;24.40;99.90;;;;;;1893765;75;21047;-87
2022/07/14 05:58:15;;;;;;;3.12;2.55;;;24.40;99.90;;;;;;1894226;75;21151;-87
2022/07/14 06:03:56;;;;;;;7.42;3.58;;;24.40;99.90;;;;;;1949724;72;22242;-87
2022/07/14 06:06:48;;;;;;;3.65;3.25;;;24.40;99.90;;;;;;1902039;75;21168;-87
2022/07/14 06:09:40;;;;;;;5.60;3.50;;;24.50;99.90;;;;;;1879538;75;21160;-87
2022/07/14 06:12:34;;;;;;;4.15;3.37;;;24.50;99.90;;;;;;1888689;75;21040;-87
2022/07/14 06:15:25;;;;;;;7.75;3.08;;;24.70;99.90;;;;;;1887801;75;21133;-86
2022/07/14 06:18:17;;;;;;;7.15;3.27;;;24.80;99.90;;;;;;1883027;75;21205;-88
2022/07/14 06:21:10;;;;;;;4.83;3.40;;;24.80;99.90;;;;;;1890140;75;21091;-88
2022/07/14 06:24:02;;;;;;;4.67;3.37;;;24.90;99.90;;;;;;1883930;75;21044;-88
2022/07/14 06:26:54;;;;;;;3.42;3.08;;;24.90;99.90;;;;;;1900263;75;21051;-88
2022/07/14 06:29:45;;;;;;;5.78;3.20;;;25.00;99.90;;;;;;1878492;75;21120;-87
2022/07/14 06:32:39;;;;;;;3.87;3.30;;;25.00;99.90;;;;;;1884204;75;21061;-88
2022/07/14 06:38:18;;;;;;;4.25;3.30;;;25.10;99.90;;;;;;1930537;72;22171;-87
2022/07/14 06:41:10;;;;;;;4.40;2.92;;;25.10;99.90;;;;;;1885799;75;21117;-88
2022/07/14 06:46:42;;;;;;;3.92;3.27;;;25.20;99.90;;;;;;1951228;72;22138;-87
2022/07/14 06:49:34;;;;;;;7.47;3.55;;;25.30;99.90;;;;;;1918453;74;21187;-88
2022/07/14 06:52:27;;;;;;;3.33;3.00;;;25.40;99.90;;;;;;1879946;75;21521;-88
2022/07/14 06:55:19;;;;;;;3.67;3.30;;;25.40;99.90;;;;;;1903568;75;21058;-87
2022/07/14 06:58:10;;;;;;;4.42;3.30;;;25.40;99.90;;;;;;1890653;75;21098;-87
2022/07/14 07:01:02;;;;;;;4.47;3.50;;;25.50;99.90;;;;;;1898413;75;21113;-90
2022/07/14 07:03:55;;;;;;;4.50;3.22;;;25.50;99.90;;;;;;1891232;75;21096;-89
2022/07/14 07:06:46;;;;;;;3.90;3.05;;;25.50;99.90;;;;;;1895227;75;21080;-89
2022/07/14 07:09:38;;;;;;;4.67;2.80;;;25.60;99.90;;;;;;1898600;75;21051;-89
2022/07/14 07:12:30;;;;;;;5.60;3.50;;;25.70;99.90;;;;;;1917198;75;21156;-89
2022/07/14 07:15:23;;;;;;;4.95;3.22;;;25.80;99.90;;;;;;1884583;75;21101;-88
2022/07/14 07:18:15;;;;;;;4.05;3.10;;;25.90;99.90;;;;;;1899846;75;21114;-88
2022/07/14 07:21:07;;;;;;;3.52;2.98;;;25.90;99.90;;;;;;1888717;75;21062;-88
2022/07/14 07:23:59;;;;;;;3.75;3.40;;;26.00;99.90;;;;;;1884885;75;21113;-88
2022/07/14 07:26:51;;;;;;;5.78;3.40;;;26.00;99.90;;;;;;1897327;75;21109;-86
2022/07/14 07:29:42;;;;;;;3.50;3.15;;;26.00;99.90;;;;;;1884725;75;21063;-81
2022/07/14 07:32:34;;;;;;;3.20;2.90;;;26.10;99.90;;;;;;1905957;75;21098;-81
2022/07/14 07:35:25;;;;;;;4.70;3.22;;;26.20;99.90;;;;;;1902715;75;21051;-81
2022/07/14 07:38:20;;;;;;;3.62;3.22;;;26.20;99.90;;;;;;1864942;76;21081;-81
2022/07/14 07:41:14;;;;;;;4.33;3.22;;;26.30;99.90;;;;;;1866527;76;21050;-81
2022/07/14 07:44:06;;;;;;;3.22;2.92;;;26.40;99.90;;;;;;1903177;75;21122;-76
2022/07/14 07:46:58;;;;;;;3.98;3.27;;;26.50;99.90;;;;;;1898875;74;21134;-76
2022/07/14 07:49:50;;;;;;;4.08;3.55;;;26.50;99.90;;;;;;1884589;75;21059;-76
2022/07/14 07:52:41;;;;;;;4.75;3.10;;;26.50;99.90;;;;;;1898142;75;21233;-76
2022/07/14 07:58:18;;;;;;;3.37;3.08;;;26.60;99.90;;;;;;1952025;72;22632;-76
2022/07/14 08:03:48;;;;;;;5.28;3.67;;;26.80;99.90;;;;;;1946793;72;22143;-75
2022/07/14 08:06:40;;;;;;;5.00;3.55;;;26.90;99.90;;;;;;1903164;75;21118;-75
2022/07/14 08:09:31;;;;;;;5.35;3.72;;;26.90;99.90;;;;;;1901355;75;21051;-76
2022/07/14 08:12:22;;;;;;;3.90;3.52;;;26.90;99.90;;;;;;1876604;76;21051;-75
2022/07/14 08:15:14;;;;;;;4.85;3.60;;;27.00;99.90;;;;;;1906225;75;21208;-76
2022/07/14 08:18:06;;;;;;;6.20;4.00;;;27.00;99.90;;;;;;1902158;75;21252;-76
2022/07/14 08:23:38;;;;;;;5.72;3.87;;;27.20;99.90;;;;;;1938406;72;22849;-77
2022/07/14 08:26:29;;;;;;;4.85;4.35;;;27.20;99.90;;;;;;1914467;75;21518;-78
2022/07/14 08:29:20;;;;;;;4.60;4.12;;;27.20;99.90;;;;;;1894214;75;21211;-77
2022/07/14 08:32:12;;;;;;;4.83;3.90;;;27.30;99.90;;;;;;1897080;75;21234;-76
2022/07/14 08:35:05;;;;;;;5.30;3.72;;;27.40;99.90;;;;;;1899949;75;21121;-76
2022/07/14 08:37:57;;;;;;;3.80;3.50;;;27.50;99.90;;;;;;1906468;75;21219;-77
2022/07/14 08:43:29;;;;;;;3.70;3.40;;;27.70;99.90;;;;;;1924853;72;22817;-76
2022/07/14 08:49:06;;;;;;;4.22;3.80;;;27.90;99.90;;;;;;1931759;72;22083;-76
2022/07/14 08:51:57;;;;;;;4.90;3.75;;;28.00;99.90;;;;;;1903191;74;21537;-76
2022/07/14 08:54:49;;;;;;;3.98;3.40;;;28.10;99.90;;;;;;1898637;75;21118;-76
2022/07/14 08:57:42;;;;;;;4.80;3.10;;;28.10;99.90;;;;;;1910718;75;21199;-77
2022/07/14 09:03:12;;;;;;;5.22;3.40;;;28.30;99.90;;;;;;1946245;72;22636;-75
2022/07/14 09:08:57;;;;;;;6.58;3.15;;;28.50;99.90;;;;;;1948596;72;22224;-76
2022/07/14 09:11:57;;;;;;;5.12;3.10;;;28.60;99.90;;;;;;1906423;75;21182;-76
2022/07/14 09:20:46;;;;;;;4.25;2.80;;;29.00;99.90;;;;;;1938286;72;22133;-76
2022/07/14 09:23:37;;;;;;;4.08;2.85;;;29.00;99.90;;;;;;1900242;75;21121;-76
2022/07/14 09:26:30;;;;;;;4.00;2.70;;;29.10;99.80;;;;;;1896681;75;21120;-76
2022/07/14 09:29:25;;;;;;;3.25;2.67;;;29.20;99.90;;;;;;1898041;75;21186;-75
2022/07/14 09:32:17;;;;;;;3.45;2.55;;;29.30;99.20;;;;;;1907156;75;21106;-76
2022/07/14 09:35:11;;;;;;;6.15;3.22;;;29.40;99.00;;;;;;1903800;75;21064;-76
2022/07/14 09:38:05;;;;;;;3.10;2.80;;;29.50;98.20;;;;;;1899534;75;21138;-76
2022/07/14 09:43:39;;;;;;;3.25;2.50;;;29.70;97.80;;;;;;1948856;72;22209;-76
2022/07/14 09:46:49;;;;;;;3.37;2.60;;;29.80;97.70;;;;;;1927586;73;21572;-76
2022/07/14 09:49:40;;;;;;;3.65;2.55;;;29.90;97.30;;;;;;1941096;73;21490;-76
2022/07/14 09:52:34;;;;;;;4.92;3.08;;;29.90;97.20;;;;;;1923890;73;21135;-75
2022/07/14 09:55:26;;;;;;;3.77;2.85;;;30.00;96.60;;;;;;1926233;73;21082;-78
2022/07/14 09:58:19;;;;;;;4.33;2.87;;;30.00;96.40;;;;;;1922517;73;21124;-76
2022/07/14 10:01:14;;;;;;;2.75;2.40;;;30.10;96.80;;;;;;1881067;76;21240;-76
2022/07/14 10:04:06;;;;;;;2.08;1.95;;;30.30;96.00;;;;;;1917763;73;21511;-77
2022/07/14 10:06:59;;;;;;;2.55;2.35;;;30.40;95.10;;;;;;1920993;73;21087;-76
2022/07/14 10:09:56;;;;;;;2.90;2.42;;;30.40;95.00;;;;;;1892873;75;21228;-76
2022/07/14 10:12:48;;;;;;;3.60;2.20;;;30.50;94.80;;;;;;1925862;73;21168;-76
2022/07/14 10:15:41;;;;;;;2.67;2.40;;;30.60;94.40;;;;;;1916836;73;21490;-76
2022/07/14 10:18:34;;;;;;;4.72;2.45;;;30.60;93.90;;;;;;1931047;73;21176;-76
2022/07/14 10:21:27;;;;;;;2.52;2.05;;;30.70;93.50;;;;;;1920863;73;21097;-76
2022/07/14 10:24:21;;;;;;;3.15;2.25;;;30.80;93.00;;;;;;1917059;75;21120;-77
2022/07/14 10:27:13;;;;;;;2.98;2.22;;;30.90;92.20;;;;;;1934637;73;21087;-76
2022/07/14 10:30:05;;;;;;;3.58;2.40;;;31.00;92.00;;;;;;1917971;73;21058;-77
2022/07/14 10:38:37;;;;;;;2.33;2.12;;;31.30;90.80;;;;;;1937456;72;22574;-76
2022/07/14 10:41:58;;;;;;;3.30;2.33;;;31.40;90.00;;;;;;1895630;75;21110;-78
2022/07/14 10:44:51;;;;;;;3.10;2.62;;;31.60;89.00;;;;;;1898999;75;21109;-76
2022/07/14 10:47:48;;;;;;;3.62;2.60;;;31.60;90.00;;;;;;1898349;75;21134;-77
2022/07/14 10:50:40;;;;;;;6.37;3.00;;;31.70;90.10;;;;;;1904721;75;21087;-77
2022/07/14 10:53:33;;;;;;;4.10;2.33;;;31.70;90.20;;;;;;1897552;75;21232;-76
2022/07/14 10:59:34;;;;;;;4.08;2.37;;;31.80;85.50;;;;;;1936111;72;22197;-76
2022/07/14 11:02:34;;;;;;;2.83;2.02;;;31.90;85.90;;;;;;1905339;75;21219;-76
2022/07/14 11:05:25;;;;;;;2.35;2.10;;;32.00;83.70;;;;;;1888079;75;21035;-76
2022/07/14 11:08:16;;;;;;;1.92;1.80;;;32.10;83.40;;;;;;1906314;75;21522;-76
2022/07/14 11:11:17;;;;;;;4.85;2.30;;;32.30;82.60;;;;;;1911768;75;21502;-76
2022/07/14 11:14:13;;;;;;;2.22;2.02;;;32.40;82.60;;;;;;1894516;75;21118;-76
2022/07/14 11:19:47;;;;;;;4.50;2.50;;;32.40;83.30;;;;;;1935951;72;22155;-75
2022/07/14 11:25:28;;;;;;;2.67;2.10;;;32.60;84.00;;;;;;1941529;72;22229;-76
2022/07/14 11:28:44;;;;;;;2.27;2.08;;;32.60;83.10;;;;;;1904416;75;21142;-76
2022/07/14 11:31:46;;;;;;;2.55;2.00;;;32.70;83.50;;;;;;1884574;75;21114;-76
2022/07/14 11:37:19;;;;;;;2.65;2.08;;;32.80;82.00;;;;;;1948454;72;22133;-76
2022/07/14 11:41:02;;;;;;;4.60;2.10;;;32.90;81.50;;;;;;1917148;75;21175;-76
2022/07/14 11:49:57;;;;;;;1.77;1.67;;;32.90;77.20;;;;;;1945797;72;22239;-76
2022/07/14 11:52:51;;;;;;;1.80;1.45;;;33.00;77.10;;;;;;1885236;75;21141;-75
2022/07/14 11:55:44;;;;;;;2.42;1.55;;;33.20;75.70;;;;;;1894941;75;21067;-76
2022/07/14 11:58:39;;;;;;;2.77;1.70;;;33.40;74.30;;;;;;1889342;75;21103;-76
2022/07/14 12:01:35;;;;;;;2.22;1.70;;;33.40;74.10;;;;;;1896696;75;21062;-75
2022/07/14 12:04:27;;;;;;;3.52;1.80;;;33.40;72.40;;;;;;1890524;74;21059;-77
2022/07/14 12:07:20;;;;;;;1.80;1.70;;;33.40;73.60;;;;;;1889639;75;22302;-77
2022/07/14 12:10:12;;;;;;;2.55;1.75;;;33.40;72.80;;;;;;1915257;75;21078;-78
2022/07/14 12:13:04;;;;;;;3.65;1.77;;;33.40;72.60;;;;;;1899547;75;21137;-77
2022/07/14 12:16:01;;;;;;;1.70;1.60;;;33.60;73.10;;;;;;1887738;75;21089;-81
2022/07/14 12:18:55;;;;;;;1.60;1.50;;;33.70;72.10;;;;;;1884668;74;21098;-81
2022/07/14 12:21:46;;;;;;;3.75;1.80;;;33.90;71.20;;;;;;1891605;75;21499;-79
2022/07/14 12:24:38;;;;;;;2.85;1.70;;;34.00;70.00;;;;;;1900518;75;21125;-79
2022/07/14 12:27:30;;;;;;;1.87;1.50;;;33.90;69.30;;;;;;1895245;75;21090;-79
2022/07/14 12:30:21;;;;;;;2.72;1.80;;;33.90;68.60;;;;;;1884435;75;21059;-79
2022/07/14 12:35:54;;;;;;;2.17;1.50;;;34.10;65.80;;;;;;1914720;72;22129;-78
2022/07/14 12:38:46;;;;;;;2.60;1.35;;;34.10;64.60;;;;;;1895807;75;21613;-79
2022/07/14 12:44:17;;;;;;;1.50;1.40;;;34.40;63.20;;;;;;1946885;72;22114;-79
2022/07/14 12:47:10;;;;;;;2.70;1.52;;;34.40;62.80;;;;;;1911085;75;21759;-78
2022/07/14 12:50:04;;;;;;;3.45;1.40;;;34.40;63.20;;;;;;1894877;75;21031;-79
2022/07/14 12:55:44;;;;;;;1.85;1.12;;;34.50;61.80;;;;;;1955348;72;22088;-79
2022/07/14 12:58:33;;;;;;;3.42;1.40;;;34.50;59.90;;;;;;1896030;75;21231;-79
2022/07/14 13:01:25;;;;;;;1.20;1.10;;;34.60;58.80;;;;;;1891297;75;21124;-79
2022/07/14 13:04:28;;;;;;;1.50;1.40;;;34.60;59.90;;;;;;1888568;75;21352;-78
2022/07/14 13:07:24;;;;;;;3.35;1.37;;;34.70;60.00;;;;;;1885684;75;21546;-81
2022/07/14 13:10:17;;;;;;;1.40;1.30;;;34.60;60.20;;;;;;1896554;75;21494;-79
2022/07/14 13:13:09;;;;;;;1.87;1.55;;;34.70;60.70;;;;;;1890665;75;21059;-79
2022/07/14 13:19:13;;;;;;;1.60;1.40;;;34.70;60.90;;;;;;1931552;72;22222;-80
2022/07/14 13:22:07;;;;;;;1.45;1.35;;;34.70;61.60;;;;;;1908619;75;21109;-79
2022/07/14 13:24:58;;;;;;;1.90;1.60;;;34.80;62.00;;;;;;1901162;75;21208;-79
2022/07/14 13:27:50;;;;;;;2.65;1.32;;;34.90;61.90;;;;;;1902233;75;21191;-78
2022/07/14 13:30:41;;;;;;;1.62;1.30;;;34.80;62.40;;;;;;1896440;74;21175;-79
2022/07/14 13:33:34;;;;;;;3.00;1.40;;;34.80;62.40;;;;;;1899233;75;21123;-79
2022/07/14 13:36:26;;;;;;;2.65;1.30;;;34.80;61.90;;;;;;1882678;75;21122;-78
2022/07/14 13:39:17;;;;;;;2.55;1.40;;;34.70;62.70;;;;;;1886648;75;21066;-79
2022/07/14 13:42:10;;;;;;;2.30;1.57;;;34.70;62.10;;;;;;1887192;75;21125;-79
2022/07/14 13:45:01;;;;;;;1.35;1.22;;;34.90;61.40;;;;;;1899110;74;21097;-78
2022/07/14 13:47:53;;;;;;;1.60;1.37;;;35.10;59.70;;;;;;1908857;74;21067;-78
2022/07/14 13:53:54;;;;;;;2.70;1.60;;;35.30;56.30;;;;;;1902506;75;21066;-78
2022/07/14 13:56:46;;;;;;;1.40;1.30;;;35.40;58.60;;;;;;1909972;75;21102;-79
2022/07/14 13:59:39;;;;;;;1.72;1.32;;;35.70;57.70;;;;;;1901054;75;21088;-78
2022/07/14 14:03:22;;;;;;;1.40;1.30;;;35.80;56.70;;;;;;1913294;75;21223;-78
2022/07/14 14:08:03;;;;;;;3.08;1.75;;;36.30;57.60;;;;;;1939066;72;22256;-78
2022/07/14 14:13:38;;;;;;;3.00;1.75;;;36.40;58.90;;;;;;1941885;72;22130;-78
2022/07/14 14:16:29;;;;;;;2.10;1.40;;;36.60;59.50;;;;;;1919011;74;21074;-77
2022/07/14 14:19:20;;;;;;;1.55;1.40;;;36.60;58.70;;;;;;1927085;73;21042;-77
2022/07/14 14:22:13;;;;;;;2.33;1.70;;;36.80;58.50;;;;;;1917893;74;21158;-78
2022/07/14 14:25:05;;;;;;;1.82;1.35;;;36.80;58.50;;;;;;1917619;74;21130;-78
2022/07/14 14:27:56;;;;;;;3.25;1.40;;;36.80;57.60;;;;;;1902211;74;21122;-78
2022/07/14 14:33:27;;;;;;;3.20;1.75;;;37.00;56.40;;;;;;1919725;72;23018;-78
2022/07/14 14:38:56;;;;;;;2.17;1.77;;;37.10;56.00;;;;;;1934765;72;22573;-78
2022/07/14 14:44:28;;;;;;;1.85;1.57;;;37.20;55.60;;;;;;1941748;72;22634;-79
2022/07/14 14:47:19;;;;;;;1.40;1.30;;;37.50;55.10;;;;;;1898844;75;21682;-78
2022/07/14 14:50:12;;;;;;;2.02;1.37;;;37.70;54.60;;;;;;1884190;75;21063;-79
2022/07/14 14:53:04;;;;;;;2.02;1.25;;;38.20;54.60;;;;;;1891528;75;21108;-78
2022/07/14 14:55:55;;;;;;;1.50;1.40;;;38.40;54.40;;;;;;1899272;75;21131;-77
2022/07/14 14:58:48;;;;;;;1.40;1.30;;;38.40;54.10;;;;;;1904780;75;21143;-80
2022/07/14 15:01:41;;;;;;;1.87;1.45;;;38.50;53.70;;;;;;1898490;75;22059;-78
2022/07/14 15:04:32;;;;;;;3.65;1.75;;;38.60;53.00;;;;;;1895778;75;21062;-80
2022/07/14 15:07:24;;;;;;;3.40;1.35;;;38.70;52.90;;;;;;1901355;75;21102;-78
2022/07/14 15:10:16;;;;;;;2.35;1.30;;;38.80;52.30;;;;;;1882968;75;21132;-80
2022/07/14 15:13:09;;;;;;;1.47;1.37;;;39.00;52.40;;;;;;1896794;74;21215;-79
2022/07/14 15:16:00;;;;;;;2.80;1.50;;;39.00;51.90;;;;;;1901260;75;21095;-79
2022/07/14 15:18:52;;;;;;;1.85;1.40;;;39.00;51.90;;;;;;1905093;75;21153;-79
2022/07/14 15:21:43;;;;;;;1.62;1.32;;;39.10;51.70;;;;;;1915463;75;21055;-79
2022/07/14 15:24:34;;;;;;;1.65;1.55;;;39.40;51.30;;;;;;1900075;75;21039;-79
2022/07/14 15:27:26;;;;;;;2.10;1.40;;;39.60;50.70;;;;;;1898612;75;21131;-79
2022/07/14 15:30:17;;;;;;;1.57;1.42;;;39.60;50.50;;;;;;1889581;75;21125;-79
2022/07/14 15:33:08;;;;;;;1.87;1.40;;;39.50;50.20;;;;;;1890415;73;21141;-79
2022/07/14 15:41:14;;;;;;;1.65;1.40;;;39.50;49.10;;;;;;1929280;72;22153;-82
2022/07/14 15:44:09;;;;;;;1.95;1.40;;;39.50;49.00;;;;;;1940127;72;22240;-78
2022/07/14 15:46:59;;;;;;;1.77;1.30;;;39.60;48.60;;;;;;1907656;74;21186;-79
2022/07/14 15:49:50;;;;;;;2.05;1.40;;;39.90;48.50;;;;;;1905479;75;21207;-79
2022/07/14 15:55:22;;;;;;;1.42;1.32;;;40.00;47.50;;;;;;1953530;72;22231;-76
2022/07/14 15:58:14;;;;;;;2.20;1.40;;;40.10;47.60;;;;;;1936092;73;21129;-75
2022/07/14 16:03:45;;;;;;;1.45;1.30;;;40.20;47.80;;;;;;1953735;72;22130;-76
2022/07/14 16:09:17;;;;;;;1.60;1.40;;;40.60;46.40;;;;;;1934800;72;22162;-76
2022/07/14 16:12:08;;;;;;;2.15;1.50;;;40.50;46.60;;;;;;1890399;75;21067;-76
2022/07/14 16:14:59;;;;;;;2.17;1.42;;;40.80;46.30;;;;;;1927143;73;21135;-76
2022/07/14 16:17:50;;;;;;;1.98;1.52;;;40.50;46.70;;;;;;1883752;75;21183;-76
2022/07/14 16:23:21;;;;;;;2.52;1.40;;;40.80;45.80;;;;;;1961491;72;22354;-78
2022/07/14 16:26:13;;;;;;;2.12;1.40;;;40.90;45.70;;;;;;1934932;73;21211;-76
2022/07/14 16:29:05;;;;;;;1.57;1.47;;;41.50;44.90;;;;;;1923446;73;21076;-76
2022/07/14 16:31:56;;;;;;;4.20;1.20;;;41.40;44.70;;;;;;1925533;73;21074;-76
2022/07/14 16:34:47;;;;;;;1.32;1.22;;;41.30;44.80;;;;;;1917505;75;21050;-76
2022/07/14 16:37:40;;;;;;;1.65;1.30;;;41.40;44.80;;;;;;1930081;73;21044;-76
2022/07/14 16:40:31;;;;;;;1.45;1.35;;;41.00;44.60;;;;;;1919021;74;21478;-77
2022/07/14 16:43:23;;;;;;;1.90;1.47;;;41.30;44.70;;;;;;1917671;73;21109;-77
2022/07/14 16:48:57;;;;;;;1.32;1.22;;;41.30;43.80;;;;;;1965487;72;22179;-76
2022/07/14 16:51:50;;;;;;;1.50;1.37;;;41.10;43.80;;;;;;1929479;73;21178;-76
2022/07/14 16:54:41;;;;;;;1.57;1.30;;;40.90;43.90;;;;;;1932717;73;21080;-77
2022/07/14 16:57:32;;;;;;;1.90;1.30;;;41.10;43.90;;;;;;1928732;73;21147;-76
2022/07/14 17:00:23;;;;;;;2.65;1.30;;;41.10;43.90;;;;;;1940169;73;21070;-77
2022/07/14 17:03:14;;;;;;;3.22;1.30;;;41.30;43.40;;;;;;1918634;73;21276;-77
2022/07/14 17:08:51;;;;;;;1.95;1.40;;;41.70;43.30;;;;;;1939722;72;22087;-76
2022/07/14 17:11:42;;;;;;;3.90;1.10;;;41.20;43.10;;;;;;1901308;75;21101;-76
2022/07/14 17:14:34;;;;;;;1.70;1.32;;;41.20;43.40;;;;;;1899634;73;21096;-76
2022/07/14 17:17:26;;;;;;;2.15;1.45;;;41.00;43.50;;;;;;1893963;75;21139;-76
2022/07/14 17:20:19;;;;;;;1.52;1.37;;;40.90;43.40;;;;;;1888636;75;21522;-76
2022/07/14 17:25:50;;;;;;;1.67;1.47;;;40.70;43.80;;;;;;1947360;72;22168;-80
2022/07/14 17:28:42;;;;;;;2.15;1.60;;;40.80;44.00;;;;;;1910627;75;21146;-84
2022/07/14 17:31:33;;;;;;;5.92;2.17;;;40.90;43.90;;;;;;1889285;75;21148;-84
2022/07/14 17:34:24;;;;;;;9.38;2.20;;;40.30;44.20;;;;;;1895399;75;21123;-80
2022/07/14 17:37:16;;;;;;;3.35;1.70;;;39.70;44.80;;;;;;1892275;74;21539;-81
2022/07/14 17:40:10;;;;;;;3.65;1.95;;;39.50;45.20;;;;;;1902746;75;21042;-81
2022/07/14 17:43:03;;;;;;;5.83;2.62;;;39.10;45.80;;;;;;1903024;75;21129;-83
2022/07/14 17:45:55;;;;;;;3.67;1.92;;;38.90;46.10;;;;;;1890323;75;21208;-83
2022/07/14 17:48:47;;;;;;;6.15;2.27;;;38.80;46.10;;;;;;1884425;75;21088;-83
2022/07/14 17:54:49;;;;;;;10.60;3.85;;;38.20;46.30;;;;;;1884657;75;21116;-83
2022/07/14 17:57:40;;;;;;;3.90;2.40;;;38.40;46.80;;;;;;1902909;75;21094;-84